createdAt,value
2018-03-17T00:00:47.564Z,96948.59
2018-03-17T00:03:16.584Z,96942.12
2018-03-17T00:05:44.847Z,96932.13
2018-03-17T00:08:13.108Z,96927.24
2018-03-17T00:10:42.131Z,96923.03
2018-03-17T00:13:10.391Z,96921.70
2018-03-17T00:15:38.652Z,96923.45
2018-03-17T00:18:07.666Z,96929.83
2018-03-17T00:20:35.931Z,96934.27
2018-03-17T00:23:04.947Z,96933.75
2018-03-17T00:25:33.210Z,96934.30
2018-03-17T00:28:01.464Z,96928.90
2018-03-17T00:30:30.496Z,96932.50
2018-03-17T00:32:58.742Z,96929.19
2018-03-17T00:35:27.782Z,96926.95
2018-03-17T00:37:56.805Z,96929.36
2018-03-17T00:40:25.055Z,96937.70
2018-03-17T00:42:53.308Z,96931.39
2018-03-17T00:45:21.558Z,96925.41
2018-03-17T00:47:49.824Z,96930.03
2018-03-17T00:50:18.840Z,96933.67
2018-03-17T00:52:47.098Z,96936.73
2018-03-17T00:55:16.114Z,96941.00
2018-03-17T00:57:44.370Z,96930.97
2018-03-17T01:00:13.392Z,96937.94
2018-03-17T01:02:41.651Z,96934.08
2018-03-17T01:05:09.908Z,96935.94
2018-03-17T01:07:38.927Z,96932.31
2018-03-17T01:10:07.173Z,96927.75
2018-03-17T01:12:36.214Z,96933.50
2018-03-17T01:15:04.463Z,96928.58
2018-03-17T01:17:32.730Z,96933.34
2018-03-17T01:20:01.759Z,96924.67
2018-03-17T01:22:30.024Z,96926.12
2018-03-17T01:24:58.285Z,96930.94
2018-03-17T01:27:26.546Z,96924.77
2018-03-17T01:29:55.583Z,96929.48
2018-03-17T01:32:23.846Z,96933.08
2018-03-17T01:34:52.106Z,96928.25
2018-03-17T01:37:20.401Z,96931.76
2018-03-17T01:39:49.405Z,96924.88
2018-03-17T01:42:17.656Z,96918.53
2018-03-17T01:44:45.919Z,96912.36
2018-03-17T01:47:14.178Z,96917.89
2018-03-17T01:49:43.222Z,96924.72
2018-03-17T01:52:11.488Z,96933.94
2018-03-17T01:54:39.747Z,96927.44
2018-03-17T01:57:08.006Z,96917.94
2018-03-17T01:59:37.033Z,96906.55
2018-03-17T02:02:05.307Z,96905.61
2018-03-17T02:04:33.563Z,96898.50
2018-03-17T02:07:01.835Z,96907.75
2018-03-17T02:09:30.104Z,96906.04
2018-03-17T02:11:59.136Z,96896.85
2018-03-17T02:14:27.394Z,96895.19
2018-03-17T02:16:55.659Z,96885.16
2018-03-17T02:19:23.919Z,96884.89
2018-03-17T02:21:52.942Z,96881.27
2018-03-17T02:24:21.198Z,96885.17
2018-03-17T02:26:49.468Z,96887.67
2018-03-17T02:29:18.494Z,96876.52
2018-03-17T02:31:46.768Z,96874.33
2018-03-17T02:34:15.028Z,96871.73
2018-03-17T02:36:43.284Z,96875.11
2018-03-17T02:39:12.311Z,96879.54
2018-03-17T02:41:40.573Z,96871.42
2018-03-17T02:44:08.839Z,96872.03
2018-03-17T02:46:37.858Z,96872.54
2018-03-17T02:49:06.127Z,96874.83
2018-03-17T02:51:34.391Z,96875.34
2018-03-17T02:54:02.665Z,96873.63
2018-03-17T02:56:30.926Z,96870.42
2018-03-17T02:58:59.962Z,96872.91
2018-03-17T03:01:28.228Z,96875.39
2018-03-17T03:03:56.496Z,96875.16
2018-03-17T03:06:24.751Z,96879.48
2018-03-17T03:08:53.791Z,96874.41
2018-03-17T03:11:22.042Z,96863.44
2018-03-17T03:13:50.306Z,96871.20
2018-03-17T03:16:18.567Z,96869.00
2018-03-17T03:18:47.618Z,96864.55
2018-03-17T03:21:16.643Z,96860.34
2018-03-17T03:23:44.901Z,96861.25
2018-03-17T03:26:13.169Z,96858.52
2018-03-17T03:28:42.198Z,96860.77
2018-03-17T03:31:11.238Z,96870.13
2018-03-17T03:33:39.501Z,96883.81
2018-03-17T03:36:07.769Z,96881.75
2018-03-17T03:38:36.023Z,96880.98
2018-03-17T03:41:05.052Z,96875.53
2018-03-17T03:43:33.306Z,96879.27
2018-03-17T03:46:01.580Z,96877.02
2018-03-17T03:48:30.604Z,96886.55
2018-03-17T03:50:58.896Z,96887.04
2018-03-17T03:53:27.152Z,96887.57
2018-03-17T03:55:55.424Z,96884.84
2018-03-17T03:58:23.676Z,96881.28
2018-03-17T04:00:51.943Z,96873.29
2018-03-17T04:03:20.968Z,96881.16
2018-03-17T04:05:49.228Z,96884.66
2018-03-17T04:08:17.484Z,96881.58
2018-03-17T04:10:46.535Z,96876.59
2018-03-17T04:13:14.885Z,96872.45
2018-03-17T04:15:43.136Z,96866.17
2018-03-17T04:18:12.167Z,96870.48
2018-03-17T04:20:40.427Z,96871.81
2018-03-17T04:23:08.695Z,96864.62
2018-03-17T04:25:36.959Z,96859.37
2018-03-17T04:28:05.226Z,96857.66
2018-03-17T04:30:34.254Z,96856.10
2018-03-17T04:33:02.524Z,96859.17
2018-03-17T04:35:30.770Z,96848.36
2018-03-17T04:37:59.800Z,96851.31
2018-03-17T04:40:28.058Z,96846.37
2018-03-17T04:42:56.322Z,96852.50
2018-03-17T04:45:25.356Z,96854.55
2018-03-17T04:47:53.615Z,96846.14
2018-03-17T04:50:21.872Z,96845.86
2018-03-17T04:52:50.139Z,96847.02
2018-03-17T04:55:19.168Z,96851.96
2018-03-17T04:57:47.433Z,96855.32
2018-03-17T05:00:15.692Z,96849.59
2018-03-17T05:02:44.711Z,96854.45
2018-03-17T05:05:12.979Z,96847.82
2018-03-17T05:07:41.234Z,96855.10
2018-03-17T05:10:09.509Z,96846.41
2018-03-17T05:12:37.781Z,96850.76
2018-03-17T05:15:06.807Z,96846.02
2018-03-17T05:17:35.063Z,96847.50
2018-03-17T05:20:03.330Z,96846.27
2018-03-17T05:22:31.590Z,96847.31
2018-03-17T05:25:00.635Z,96830.73
2018-03-17T05:27:28.889Z,96830.52
2018-03-17T05:29:57.154Z,96835.67
2018-03-17T05:32:25.412Z,96830.08
2018-03-17T05:34:54.435Z,96826.58
2018-03-17T05:37:22.695Z,96824.27
2018-03-17T05:39:50.963Z,96834.58
2018-03-17T05:42:19.987Z,96826.02
2018-03-17T05:44:48.252Z,96819.27
2018-03-17T05:47:16.510Z,96815.80
2018-03-17T05:49:45.542Z,96817.19
2018-03-17T05:52:13.838Z,96821.40
2018-03-17T05:54:42.068Z,96815.67
2018-03-17T05:57:10.322Z,96816.09
2018-03-17T05:59:39.356Z,96817.16
2018-03-17T06:02:07.612Z,96819.70
2018-03-17T06:04:35.887Z,96816.30
2018-03-17T06:07:04.153Z,96815.19
2018-03-17T06:09:33.186Z,96819.95
2018-03-17T06:12:01.461Z,96826.64
2018-03-17T06:14:29.734Z,96820.00
2018-03-17T06:16:57.975Z,96817.05
2018-03-17T06:19:27.003Z,96820.83
2018-03-17T06:21:55.280Z,96822.98
2018-03-17T06:24:23.534Z,96827.66
2018-03-17T06:26:51.798Z,96820.89
2018-03-17T06:29:20.058Z,96829.52
2018-03-17T06:31:49.092Z,96826.70
2018-03-17T06:34:17.346Z,96827.86
2018-03-17T06:36:45.619Z,96827.39
2018-03-17T06:39:13.875Z,96827.27
2018-03-17T06:41:42.905Z,96823.53
2018-03-17T06:44:11.163Z,96827.75
2018-03-17T06:46:39.422Z,96830.73
2018-03-17T06:49:08.448Z,96828.83
2018-03-17T06:51:36.716Z,96823.08
2018-03-17T06:54:04.962Z,96829.55
2018-03-17T06:56:33.995Z,96826.91
2018-03-17T06:59:02.256Z,96826.09
2018-03-17T07:01:30.512Z,96839.03
2018-03-17T07:03:59.544Z,96839.95
2018-03-17T07:06:27.797Z,96836.45
2018-03-17T07:08:56.060Z,96830.05
2018-03-17T07:11:25.083Z,96831.59
2018-03-17T07:13:53.345Z,96825.00
2018-03-17T07:16:21.601Z,96819.06
2018-03-17T07:18:50.627Z,96826.38
2018-03-17T07:21:18.877Z,96817.81
2018-03-17T07:23:47.910Z,96812.77
2018-03-17T07:26:16.166Z,96814.72
2018-03-17T07:28:44.423Z,96816.86
2018-03-17T07:31:13.450Z,96811.28
2018-03-17T07:33:41.718Z,96807.77
2018-03-17T07:36:09.978Z,96813.99
2018-03-17T07:38:38.254Z,96811.84
2018-03-17T07:41:06.514Z,96804.73
2018-03-17T07:43:35.535Z,96802.52
2018-03-17T07:46:03.798Z,96801.91
2018-03-17T07:48:32.056Z,96807.63
2018-03-17T07:51:01.082Z,96812.88
2018-03-17T07:53:29.339Z,96805.34
2018-03-17T07:55:58.418Z,96796.44
2018-03-17T07:58:27.449Z,96809.98
2018-03-17T08:00:55.705Z,96805.34
2018-03-17T08:03:23.967Z,96809.08
2018-03-17T08:05:52.994Z,96811.56
2018-03-17T08:08:21.250Z,96803.41
2018-03-17T08:10:49.514Z,96817.84
2018-03-17T08:13:18.539Z,96808.53
2018-03-17T08:15:46.807Z,96811.62
2018-03-17T08:18:15.055Z,96811.83
2018-03-17T08:20:44.083Z,96813.89
2018-03-17T08:23:12.340Z,96816.94
2018-03-17T08:25:40.603Z,96825.31
2018-03-17T08:28:09.628Z,96815.77
2018-03-17T08:30:37.886Z,96812.88
2018-03-17T08:33:06.151Z,96813.50
2018-03-17T08:35:35.176Z,96807.99
2018-03-17T08:38:03.445Z,96810.23
2018-03-17T08:40:31.700Z,96806.58
2018-03-17T08:42:59.967Z,96806.60
2018-03-17T08:45:28.982Z,96811.27
2018-03-17T08:47:57.244Z,96806.25
2018-03-17T08:50:25.499Z,96802.18
2018-03-17T08:52:54.528Z,96803.43
2018-03-17T08:55:22.787Z,96802.86
2018-03-17T08:57:51.815Z,96800.97
2018-03-17T09:00:20.072Z,96802.72
2018-03-17T09:02:48.330Z,96804.72
2018-03-17T09:05:16.595Z,96807.50
2018-03-17T09:07:45.625Z,96796.72
2018-03-17T09:10:13.884Z,96802.66
2018-03-17T09:12:42.151Z,96792.59
2018-03-17T09:15:11.175Z,96798.11
2018-03-17T09:17:39.431Z,96799.66
2018-03-17T09:20:07.690Z,96801.41
2018-03-17T09:22:36.730Z,96800.54
2018-03-17T09:25:05.767Z,96791.00
2018-03-17T09:27:34.794Z,96793.21
2018-03-17T09:30:03.047Z,96790.39
2018-03-17T09:32:32.073Z,96789.06
2018-03-17T09:35:00.335Z,96798.05
2018-03-17T09:37:28.599Z,96792.43
2018-03-17T09:39:56.862Z,96795.70
2018-03-17T09:42:25.883Z,96790.03
2018-03-17T09:44:54.143Z,96787.99
2018-03-17T09:47:22.395Z,96790.58
2018-03-17T09:49:50.664Z,96783.07
2018-03-17T09:52:18.915Z,96782.73
2018-03-17T09:54:47.949Z,96790.38
2018-03-17T09:57:16.968Z,96783.97
2018-03-17T09:59:45.228Z,96782.02
2018-03-17T10:02:14.255Z,96777.59
2018-03-17T10:04:42.514Z,96779.31
2018-03-17T10:07:10.775Z,96780.33
2018-03-17T10:09:39.794Z,96770.85
2018-03-17T10:12:08.044Z,96778.38
2018-03-17T10:14:36.312Z,96781.20
2018-03-17T10:17:05.339Z,96780.52
2018-03-17T10:19:33.612Z,96776.23
2018-03-17T10:22:01.858Z,96784.97
2018-03-17T10:24:30.878Z,96780.54
2018-03-17T10:26:59.141Z,96781.83
2018-03-17T10:29:27.450Z,96774.25
2018-03-17T10:31:56.432Z,96778.02
2018-03-17T10:34:24.691Z,96770.37
2018-03-17T10:36:52.954Z,96772.23
2018-03-17T10:39:21.211Z,96776.54
2018-03-17T10:41:50.244Z,96770.74
2018-03-17T10:44:18.501Z,96769.41
2018-03-17T10:46:46.798Z,96764.31
2018-03-17T10:49:15.151Z,96765.09
2018-03-17T10:51:43.467Z,96760.79
2018-03-17T10:54:11.744Z,96762.41
2018-03-17T10:56:39.998Z,96752.53
2018-03-17T10:59:08.267Z,96749.92
2018-03-17T11:01:42.389Z,96737.98
2018-03-17T11:04:10.655Z,96750.20
2018-03-17T11:06:38.921Z,96741.64
2018-03-17T11:09:07.191Z,96740.20
2018-03-17T11:11:36.251Z,96746.02
2018-03-17T11:14:04.489Z,96738.36
2018-03-17T11:16:32.804Z,96754.73
2018-03-17T11:19:01.089Z,96740.41
2018-03-17T11:21:29.427Z,96749.34
2018-03-17T11:23:57.867Z,96743.47
2018-03-17T11:26:26.189Z,96744.30
2018-03-17T11:28:54.495Z,96742.34
2018-03-17T11:31:22.757Z,96739.69
2018-03-17T11:33:51.887Z,96746.43
2018-03-17T11:36:20.908Z,96745.02
2018-03-17T11:38:49.189Z,96747.20
2018-03-17T11:41:17.568Z,96748.84
2018-03-17T11:43:45.884Z,96739.15
2018-03-17T11:46:14.167Z,96740.44
2018-03-17T11:48:42.445Z,96730.45
2018-03-17T11:51:10.709Z,96737.73
2018-03-17T11:53:38.984Z,96735.55
2018-03-17T11:56:07.244Z,96734.42
2018-03-17T11:58:35.507Z,96736.72
2018-03-17T12:01:03.768Z,96730.51
2018-03-17T12:03:32.035Z,96730.40
2018-03-17T12:06:00.295Z,96721.76
2018-03-17T12:08:29.341Z,96711.33
2018-03-17T12:10:57.600Z,96708.45
2018-03-17T12:13:25.884Z,96713.07
2018-03-17T12:15:54.154Z,96714.19
2018-03-17T12:18:22.405Z,96712.89
2018-03-17T12:20:50.678Z,96720.80
2018-03-17T12:23:18.941Z,96717.09
2018-03-17T12:25:47.209Z,96708.02
2018-03-17T12:28:16.236Z,96716.55
2018-03-17T12:30:44.494Z,96717.78
2018-03-17T12:33:12.774Z,96722.58
2018-03-17T12:35:41.804Z,96715.41
2018-03-17T12:38:10.071Z,96717.83
2018-03-17T12:40:38.340Z,96711.03
2018-03-17T12:43:06.599Z,96708.20
2018-03-17T12:45:34.867Z,96715.47
2018-03-17T12:48:03.131Z,96717.44
2018-03-17T12:50:32.167Z,96709.85
2018-03-17T12:53:00.428Z,96712.43
2018-03-17T12:55:28.686Z,96708.00
2018-03-17T12:57:56.958Z,96703.16
2018-03-17T13:00:25.227Z,96705.25
2018-03-17T13:02:54.248Z,96698.78
2018-03-17T13:05:22.517Z,96692.40
2018-03-17T13:07:50.772Z,96696.02
2018-03-17T13:10:19.815Z,96686.48
2018-03-17T13:12:48.079Z,96680.79
2018-03-17T13:15:16.330Z,96692.09
2018-03-17T13:17:44.606Z,96691.27
2018-03-17T13:20:12.881Z,96696.50
2018-03-17T13:22:58.915Z,96697.95
2018-03-17T13:25:27.174Z,96703.52
2018-03-17T13:28:13.165Z,96702.63
2018-03-17T13:30:41.430Z,96698.37
2018-03-17T13:33:09.727Z,96700.60
2018-03-17T13:35:55.994Z,96703.86
2018-03-17T13:38:25.022Z,96709.66
2018-03-17T13:40:53.287Z,96699.80
2018-03-17T13:43:21.556Z,96692.09
2018-03-17T13:45:49.815Z,96692.86
2018-03-17T13:48:18.091Z,96690.81
2018-03-17T13:50:46.362Z,96699.04
2018-03-17T13:53:14.633Z,96690.70
2018-03-17T13:55:43.675Z,96686.89
2018-03-17T13:58:11.942Z,96708.72
2018-03-17T14:00:40.204Z,96687.91
2018-03-17T14:03:08.467Z,96691.16
2018-03-17T14:05:36.727Z,96691.59
2018-03-17T14:08:05.765Z,96689.82
2018-03-17T14:10:34.030Z,96689.75
2018-03-17T14:13:02.301Z,96697.46
2018-03-17T14:15:30.559Z,96693.52
2018-03-17T14:17:58.827Z,96695.15
2018-03-17T14:20:27.842Z,96693.63
2018-03-17T14:22:56.105Z,96692.96
2018-03-17T14:25:24.378Z,96700.27
2018-03-17T14:27:52.640Z,96701.44
2018-03-17T14:30:21.726Z,96705.22
2018-03-17T14:32:49.939Z,96706.53
2018-03-17T14:35:18.202Z,96713.59
2018-03-17T14:37:46.466Z,96706.34
2018-03-17T14:40:15.504Z,96707.86
2018-03-17T14:42:43.763Z,96706.41
2018-03-17T14:45:12.047Z,96712.30
2018-03-17T14:47:40.305Z,96703.33
2018-03-17T14:50:08.595Z,96702.20
2018-03-17T14:52:36.866Z,96710.92
2018-03-17T14:55:05.138Z,96713.16
2018-03-17T14:57:33.398Z,96704.74
2018-03-17T15:00:01.677Z,96709.63
2018-03-17T15:02:29.938Z,96715.36
2018-03-17T15:04:58.972Z,96719.44
2018-03-17T15:07:27.243Z,96710.17
2018-03-17T15:09:55.507Z,96716.11
2018-03-17T15:12:23.771Z,96728.12
2018-03-17T15:14:52.030Z,96725.42
2018-03-17T15:17:21.059Z,96731.91
2018-03-17T15:19:49.318Z,96729.44
2018-03-17T15:22:17.579Z,96737.58
2018-03-17T15:24:46.606Z,96745.96
2018-03-17T15:27:14.866Z,96745.43
2018-03-17T15:29:43.125Z,96743.58
2018-03-17T15:32:12.164Z,96745.56
2018-03-17T15:34:40.422Z,96746.82
2018-03-17T15:37:08.685Z,96744.17
2018-03-17T15:39:36.950Z,96741.05
2018-03-17T15:42:05.983Z,96750.16
2018-03-17T15:44:34.253Z,96738.84
2018-03-17T15:47:02.510Z,96715.16
2018-03-17T15:49:30.780Z,96730.66
2018-03-17T15:51:59.057Z,96736.55
2018-03-17T15:54:27.354Z,96747.95
2018-03-17T15:56:56.330Z,96739.76
2018-03-17T15:59:24.595Z,96730.09
2018-03-17T16:01:52.860Z,96734.56
2018-03-17T16:04:21.894Z,96745.30
2018-03-17T16:06:50.146Z,96729.07
2018-03-17T16:09:18.414Z,96730.77
2018-03-17T16:11:47.434Z,96748.03
2018-03-17T16:14:15.705Z,96745.23
2018-03-17T16:16:43.963Z,96739.48
2018-03-17T16:19:12.257Z,96739.31
2018-03-17T16:21:40.519Z,96745.32
2018-03-17T16:24:08.789Z,96738.42
2018-03-17T16:26:37.046Z,96740.70
2018-03-17T16:29:06.079Z,96751.73
2018-03-17T16:31:34.339Z,96748.34
2018-03-17T16:34:02.606Z,96751.47
2018-03-17T16:36:31.623Z,96755.83
2018-03-17T16:38:59.888Z,96758.08
2018-03-17T16:41:28.148Z,96749.65
2018-03-17T16:43:57.177Z,96754.87
2018-03-17T16:46:25.442Z,96750.06
2018-03-17T16:48:53.708Z,96766.34
2018-03-17T16:51:21.979Z,96764.14
2018-03-17T16:53:50.269Z,96762.57
2018-03-17T16:56:18.532Z,96750.34
2018-03-17T16:58:46.790Z,96768.67
2018-03-17T17:01:15.816Z,96774.34
2018-03-17T17:03:44.082Z,96767.66
2018-03-17T17:06:12.345Z,96781.41
2018-03-17T17:08:41.367Z,96786.44
2018-03-17T17:11:09.670Z,96792.73
2018-03-17T17:13:37.891Z,96783.22
2018-03-17T17:16:06.160Z,96803.12
2018-03-17T17:18:35.186Z,96798.77
2018-03-17T17:21:03.455Z,96799.31
2018-03-17T17:23:31.716Z,96799.89
2018-03-17T17:25:59.975Z,96799.42
2018-03-17T17:28:28.996Z,96805.69
2018-03-17T17:30:57.262Z,96797.17
2018-03-17T17:33:25.520Z,96803.17
2018-03-17T17:35:54.544Z,96798.39
2018-03-17T17:38:22.812Z,96795.34
2018-03-17T17:40:51.074Z,96800.87
2018-03-17T17:43:19.342Z,96802.02
2018-03-17T17:45:49.247Z,96813.69
2018-03-17T17:48:17.441Z,96810.64
2018-03-17T17:50:45.706Z,96808.66
2018-03-17T17:53:14.735Z,96812.77
2018-03-17T17:55:42.994Z,96817.23
2018-03-17T17:58:11.258Z,96823.81
2018-03-17T18:00:40.282Z,96807.39
2018-03-17T18:03:08.539Z,96810.19
2018-03-17T18:05:36.790Z,96825.55
2018-03-17T18:08:05.825Z,96829.39
2018-03-17T18:10:34.086Z,96823.64
2018-03-17T18:13:02.360Z,96829.11
2018-03-17T18:15:30.624Z,96842.65
2018-03-17T18:17:58.880Z,96834.78
2018-03-17T18:20:27.916Z,96843.84
2018-03-17T18:22:56.171Z,96835.51
2018-03-17T18:25:24.439Z,96857.51
2018-03-17T18:27:53.459Z,96825.14
2018-03-17T18:30:21.723Z,96843.17
2018-03-17T18:32:49.983Z,96837.89
2018-03-17T18:35:19.015Z,96846.23
2018-03-17T18:37:47.267Z,96850.30
2018-03-17T18:40:15.531Z,96855.48
2018-03-17T18:42:44.554Z,96843.28
2018-03-17T18:45:12.825Z,96853.03
2018-03-17T18:47:41.088Z,96859.45
2018-03-17T18:50:09.351Z,96860.09
2018-03-17T18:52:38.372Z,96850.61
2018-03-17T18:55:06.651Z,96860.54
2018-03-17T18:57:34.927Z,96849.20
2018-03-17T19:00:03.187Z,96858.39
2018-03-17T19:02:31.490Z,96856.64
2018-03-17T19:04:59.761Z,96857.12
2018-03-17T19:07:28.014Z,96849.00
2018-03-17T19:09:56.283Z,96863.40
2018-03-17T19:12:24.538Z,96854.69
2018-03-17T19:14:53.570Z,96861.51
2018-03-17T19:17:21.832Z,96856.60
2018-03-17T19:19:50.168Z,96864.44
2018-03-17T19:22:18.375Z,96864.61
2018-03-17T19:24:46.641Z,96862.92
2018-03-17T19:27:15.773Z,96860.67
2018-03-17T19:29:44.036Z,96858.66
2018-03-17T19:32:12.307Z,96863.53
2018-03-17T19:34:40.575Z,96867.69
2018-03-17T19:37:08.860Z,96869.19
2018-03-17T19:39:37.126Z,96852.19
2018-03-17T19:42:05.379Z,96868.33
2018-03-17T19:44:34.458Z,96870.21
2018-03-17T19:47:02.688Z,96867.87
2018-03-17T19:49:30.939Z,96861.50
2018-03-17T19:52:00.229Z,96864.59
2018-03-17T19:54:29.255Z,96870.67
2018-03-17T19:56:57.515Z,96866.27
2018-03-17T19:59:25.768Z,96871.13
2018-03-17T20:01:54.812Z,96875.58
2018-03-17T20:04:23.153Z,96875.91
2018-03-17T20:06:52.179Z,96858.79
2018-03-17T20:09:20.435Z,96874.02
2018-03-17T20:11:48.702Z,96848.34
2018-03-17T20:14:17.735Z,96877.77
2018-03-17T20:16:46.012Z,96884.52
2018-03-17T20:19:14.292Z,96880.43
2018-03-17T20:21:42.543Z,96883.56
2018-03-17T20:24:10.816Z,96878.61
2018-03-17T20:26:39.146Z,96873.33
2018-03-17T20:29:07.414Z,96878.64
2018-03-17T20:31:35.667Z,96884.00
2018-03-17T20:34:03.955Z,96885.72
2018-03-17T20:36:32.213Z,96890.67
2018-03-17T20:39:00.604Z,96894.84
2018-03-17T20:41:28.860Z,96895.45
2018-03-17T20:43:57.251Z,96889.97
2018-03-17T20:46:25.518Z,96880.55
2018-03-17T20:48:53.783Z,96894.44
2018-03-17T20:51:22.035Z,96891.47
2018-03-17T20:53:51.063Z,96892.88
2018-03-17T20:56:19.338Z,96889.75
2018-03-17T20:58:47.613Z,96901.36
2018-03-17T21:01:15.866Z,96903.36
2018-03-17T21:03:44.158Z,96896.12
2018-03-17T21:06:12.417Z,96891.58
2018-03-17T21:08:40.688Z,96897.23
2018-03-17T21:11:09.715Z,96886.58
2018-03-17T21:13:38.071Z,96884.03
2018-03-17T21:16:06.330Z,96892.13
2018-03-17T21:18:35.351Z,96884.14
2018-03-17T21:21:03.631Z,96884.53
2018-03-17T21:23:31.901Z,96884.85
2018-03-17T21:26:00.223Z,96881.33
2018-03-17T21:28:28.483Z,96874.95
2018-03-17T21:30:56.747Z,96883.28
2018-03-17T21:33:25.131Z,96892.25
2018-03-17T21:35:53.404Z,96877.02
2018-03-17T21:38:21.657Z,96875.11
2018-03-17T21:40:49.919Z,96878.50
2018-03-17T21:43:18.182Z,96871.60
2018-03-17T21:45:47.263Z,96879.25
2018-03-17T21:48:16.311Z,96877.42
2018-03-17T21:50:44.599Z,96883.59
2018-03-17T21:53:12.866Z,96877.55
2018-03-17T21:55:41.126Z,96879.47
2018-03-17T21:58:09.391Z,96870.63
2018-03-17T22:00:37.654Z,96876.66
2018-03-17T22:03:06.678Z,96873.89
2018-03-17T22:05:35.045Z,96876.44
2018-03-17T22:08:03.304Z,96881.51
2018-03-17T22:10:31.562Z,96875.52
2018-03-17T22:13:00.588Z,96877.99
2018-03-17T22:15:28.847Z,96880.66
2018-03-17T22:17:57.114Z,96876.92
2018-03-17T22:20:26.134Z,96876.37
2018-03-17T22:22:54.399Z,96878.72
2018-03-17T22:25:22.659Z,96877.13
2018-03-17T22:27:51.693Z,96868.95
2018-03-17T22:30:19.948Z,96867.76
2018-03-17T22:32:48.212Z,96860.92
2018-03-17T22:35:16.466Z,96861.74
2018-03-17T22:37:45.593Z,96867.25
2018-03-17T22:40:13.850Z,96867.68
2018-03-17T22:42:42.868Z,96858.60
2018-03-17T22:45:11.137Z,96860.23
2018-03-17T22:47:39.387Z,96862.63
2018-03-17T22:50:08.423Z,96861.76
2018-03-17T22:52:36.674Z,96857.58
2018-03-17T22:55:04.950Z,96854.95
2018-03-17T22:57:33.194Z,96866.86
2018-03-17T23:00:01.460Z,96860.23
2018-03-17T23:02:29.714Z,96858.18
2018-03-17T23:04:57.975Z,96854.47
2018-03-17T23:07:26.232Z,96856.33
2018-03-17T23:09:54.499Z,96865.98
2018-03-17T23:12:23.711Z,96863.86
2018-03-17T23:14:51.969Z,96850.67
2018-03-17T23:17:20.989Z,96870.72
2018-03-17T23:19:49.246Z,96864.75
2018-03-17T23:22:17.496Z,96861.78
2018-03-17T23:24:46.528Z,96857.02
2018-03-17T23:27:15.050Z,96861.30
2018-03-17T23:29:43.307Z,96856.61
2018-03-17T23:32:11.565Z,96859.84
2018-03-17T23:34:39.831Z,96860.97
2018-03-17T23:37:08.099Z,96858.95
2018-03-17T23:39:36.351Z,96865.98
2018-03-17T23:42:05.385Z,96869.64
2018-03-17T23:44:33.647Z,96869.95
2018-03-17T23:47:01.911Z,96878.44
2018-03-17T23:49:30.930Z,96881.34
2018-03-17T23:51:59.196Z,96885.16
2018-03-17T23:54:27.455Z,96882.89
2018-03-17T23:56:56.488Z,96879.07
2018-03-17T23:59:24.745Z,96880.88
